createdAt,value
2023-03-06T00:00:53.272Z,-3.20
2023-03-06T00:03:23.775Z,-3.16
2023-03-06T00:05:55.795Z,-3.17
2023-03-06T00:08:25.911Z,-3.20
2023-03-06T00:10:56.464Z,-3.18
2023-03-06T00:13:30.346Z,-3.03
2023-03-06T00:16:02.316Z,-3.05
2023-03-06T00:18:31.979Z,-3.01
2023-03-06T00:21:02.224Z,-3.01
2023-03-06T00:23:31.958Z,-3.10
2023-03-06T00:26:01.969Z,-3.03
2023-03-06T00:28:33.088Z,-3.11
2023-03-06T00:31:05.576Z,-3.17
2023-03-06T00:33:35.638Z,-3.21
2023-03-06T00:36:06.351Z,-3.30
2023-03-06T00:38:37.415Z,-3.29
2023-03-06T00:41:11.104Z,-3.26
2023-03-06T00:43:41.125Z,-3.19
2023-03-06T00:46:12.598Z,-3.17
2023-03-06T00:48:42.412Z,-3.18
2023-03-06T00:51:14.009Z,-3.14
2023-03-06T00:53:43.876Z,-3.11
2023-03-06T00:56:13.907Z,-3.18
2023-03-06T00:58:44.447Z,-3.18
2023-03-06T01:01:16.601Z,-3.08
2023-03-06T01:03:46.513Z,-3.04
2023-03-06T01:06:17.793Z,-3.07
2023-03-06T01:08:47.514Z,-3.02
2023-03-06T01:11:17.550Z,-2.94
2023-03-06T01:13:47.413Z,-2.95
2023-03-06T01:16:20.216Z,-2.91
2023-03-06T01:18:53.125Z,-2.95
2023-03-06T01:21:23.249Z,-3.00
2023-03-06T01:23:52.962Z,-2.91
2023-03-06T01:26:23.607Z,-3.00
2023-03-06T01:28:53.090Z,-3.05
2023-03-06T01:31:25.116Z,-3.03
2023-03-06T01:33:55.018Z,-3.06
2023-03-06T01:36:25.019Z,-3.03
2023-03-06T01:38:54.581Z,-3.07
2023-03-06T01:41:24.648Z,-3.10
2023-03-06T01:43:54.511Z,-3.05
2023-03-06T01:46:27.644Z,-3.08
2023-03-06T01:48:58.466Z,-3.01
2023-03-06T01:51:31.611Z,-3.07
2023-03-06T01:54:02.970Z,-3.06
2023-03-06T01:56:33.672Z,-3.05
2023-03-06T01:59:03.707Z,-3.01
2023-03-06T02:01:35.562Z,-3.01
2023-03-06T02:04:05.422Z,-3.03
2023-03-06T02:06:37.387Z,-3.02
2023-03-06T02:09:07.855Z,-3.00
2023-03-06T02:11:38.000Z,-2.94
2023-03-06T02:14:07.704Z,-2.98
2023-03-06T02:16:39.417Z,-3.04
2023-03-06T02:19:10.646Z,-3.05
2023-03-06T02:21:40.934Z,-3.05
2023-03-06T02:24:18.075Z,-3.12
2023-03-06T02:26:49.957Z,-3.15
2023-03-06T02:29:23.166Z,-3.19
2023-03-06T02:31:53.350Z,-3.27
2023-03-06T02:34:41.435Z,-3.26
2023-03-06T02:37:12.298Z,-3.27
2023-03-06T02:39:44.786Z,-3.29
2023-03-06T02:42:20.286Z,-3.25
2023-03-06T02:44:50.335Z,-3.25
2023-03-06T02:47:20.417Z,-3.22
2023-03-06T02:49:50.327Z,-3.22
2023-03-06T02:52:21.181Z,-3.22
2023-03-06T02:54:50.972Z,-3.21
2023-03-06T02:57:22.678Z,-3.16
2023-03-06T02:59:52.523Z,-3.24
2023-03-06T03:02:22.774Z,-3.28
2023-03-06T03:04:52.532Z,-3.28
2023-03-06T03:07:22.717Z,-3.33
2023-03-06T03:09:52.372Z,-3.33
2023-03-06T03:12:24.138Z,-3.38
2023-03-06T03:14:53.728Z,-3.38
2023-03-06T03:17:23.999Z,-3.42
2023-03-06T03:19:54.711Z,-3.45
2023-03-06T03:22:25.607Z,-3.47
2023-03-06T03:24:55.382Z,-3.49
2023-03-06T03:27:27.013Z,-3.41
2023-03-06T03:29:58.432Z,-3.36
2023-03-06T03:32:29.313Z,-3.45
2023-03-06T03:34:59.301Z,-3.46
2023-03-06T03:37:29.682Z,-3.45
2023-03-06T03:39:59.514Z,-3.51
2023-03-06T03:42:31.131Z,-3.49
2023-03-06T03:45:00.957Z,-3.45
2023-03-06T03:47:31.075Z,-3.47
2023-03-06T03:50:01.178Z,-3.56
2023-03-06T03:52:31.399Z,-3.52
2023-03-06T03:55:01.263Z,-3.52
2023-03-06T03:57:33.211Z,-3.51
2023-03-06T04:00:04.493Z,-3.52
2023-03-06T04:02:44.029Z,-3.50
2023-03-06T04:05:25.627Z,-3.45
2023-03-06T04:07:56.289Z,-3.47
2023-03-06T04:10:26.027Z,-3.42
2023-03-06T04:12:57.657Z,-3.41
2023-03-06T04:15:30.688Z,-3.49
2023-03-06T04:18:02.899Z,-3.51
2023-03-06T04:20:32.831Z,-3.56
2023-03-06T04:23:03.777Z,-3.63
2023-03-06T04:25:34.476Z,-3.74
2023-03-06T04:28:08.666Z,-3.65
2023-03-06T04:30:38.465Z,-3.71
2023-03-06T04:33:08.621Z,-3.81
2023-03-06T04:35:38.359Z,-3.93
2023-03-06T04:38:14.213Z,-4.03
2023-03-06T04:40:45.167Z,-4.07
2023-03-06T04:43:17.042Z,-4.04
2023-03-06T04:45:46.858Z,-4.05
2023-03-06T04:48:18.297Z,-4.13
2023-03-06T04:50:48.272Z,-4.20
2023-03-06T04:53:19.985Z,-4.26
2023-03-06T04:55:49.873Z,-4.27
2023-03-06T04:58:21.504Z,-4.32
2023-03-06T05:00:51.084Z,-4.37
2023-03-06T05:03:21.063Z,-4.37
2023-03-06T05:05:50.961Z,-4.37
2023-03-06T05:08:21.203Z,-4.42
2023-03-06T05:10:54.991Z,-4.43
2023-03-06T05:13:27.174Z,-4.49
2023-03-06T05:15:57.107Z,-4.48
2023-03-06T05:18:28.409Z,-4.52
2023-03-06T05:21:00.298Z,-4.56
2023-03-06T05:23:30.922Z,-4.49
2023-03-06T05:26:00.926Z,-4.42
2023-03-06T05:28:32.586Z,-4.39
2023-03-06T05:31:03.489Z,-4.41
2023-03-06T05:33:33.918Z,-4.46
2023-03-06T05:36:04.129Z,-4.44
2023-03-06T05:38:34.239Z,-4.41
2023-03-06T05:41:04.076Z,-4.38
2023-03-06T05:43:35.840Z,-4.42
2023-03-06T05:46:07.249Z,-4.41
2023-03-06T05:48:37.882Z,-4.39
2023-03-06T05:51:07.954Z,-4.33
2023-03-06T05:53:38.060Z,-4.28
2023-03-06T05:56:09.894Z,-4.27
2023-03-06T05:58:41.877Z,-4.27
2023-03-06T06:01:11.930Z,-4.23
2023-03-06T06:03:42.372Z,-4.18
2023-03-06T06:06:13.168Z,-4.09
2023-03-06T06:08:43.617Z,-4.06
2023-03-06T06:11:13.735Z,-4.00
2023-03-06T06:13:45.319Z,-3.95
2023-03-06T06:16:16.778Z,-3.91
2023-03-06T06:18:47.422Z,-3.88
2023-03-06T06:21:17.459Z,-3.82
2023-03-06T06:23:47.737Z,-3.79
2023-03-06T06:26:17.294Z,-3.72
2023-03-06T06:28:48.688Z,-3.68
2023-03-06T06:31:18.433Z,-3.58
2023-03-06T06:33:48.459Z,-3.57
2023-03-06T06:36:19.782Z,-3.54
2023-03-06T06:38:50.222Z,-3.43
2023-03-06T06:44:14.881Z,-3.23
2023-03-06T06:49:36.082Z,-3.04
2023-03-06T06:52:06.268Z,-2.98
2023-03-06T06:54:36.401Z,-2.89
2023-03-06T06:57:06.630Z,-2.74
2023-03-06T06:59:38.007Z,-2.65
2023-03-06T07:02:07.745Z,-2.63
2023-03-06T07:04:37.870Z,-2.57
2023-03-06T07:07:07.701Z,-2.48
2023-03-06T07:09:37.570Z,-2.39
2023-03-06T07:12:07.502Z,-2.30
2023-03-06T07:14:39.731Z,-2.21
2023-03-06T07:17:09.537Z,-2.11
2023-03-06T07:19:39.898Z,-2.01
2023-03-06T07:22:09.990Z,-1.95
2023-03-06T07:24:40.017Z,-1.81
2023-03-06T07:27:09.713Z,-1.63
2023-03-06T07:29:41.241Z,-1.40
2023-03-06T07:32:11.031Z,-0.21
2023-03-06T07:34:41.033Z,0.95
2023-03-06T07:37:10.732Z,1.59
2023-03-06T07:39:40.823Z,1.81
2023-03-06T07:42:11.575Z,2.27
2023-03-06T07:44:50.213Z,2.15
2023-03-06T07:47:20.985Z,2.00
2023-03-06T07:49:51.034Z,2.39
2023-03-06T07:52:20.746Z,3.02
2023-03-06T07:54:50.975Z,3.40
2023-03-06T07:57:20.727Z,3.38
2023-03-06T07:59:52.217Z,4.31
2023-03-06T08:02:21.875Z,4.27
2023-03-06T08:04:53.831Z,4.34
2023-03-06T08:07:24.336Z,4.71
2023-03-06T08:09:54.269Z,5.13
2023-03-06T08:12:23.888Z,5.10
2023-03-06T08:14:55.332Z,5.31
2023-03-06T08:17:25.011Z,5.51
2023-03-06T08:19:55.208Z,5.07
2023-03-06T08:22:25.163Z,6.03
2023-03-06T08:24:56.061Z,6.01
2023-03-06T08:27:25.717Z,6.26
2023-03-06T08:29:57.120Z,5.92
2023-03-06T08:32:26.844Z,5.54
2023-03-06T08:34:56.993Z,5.77
2023-03-06T08:37:26.585Z,5.51
2023-03-06T08:39:56.590Z,5.60
2023-03-06T08:42:26.307Z,6.13
2023-03-06T08:44:57.668Z,6.22
2023-03-06T08:47:27.310Z,7.26
2023-03-06T08:49:58.814Z,7.33
2023-03-06T08:52:29.082Z,6.62
2023-03-06T08:55:03.735Z,6.96
2023-03-06T08:57:33.606Z,7.30
2023-03-06T09:00:09.287Z,6.92
2023-03-06T09:02:39.014Z,6.40
2023-03-06T09:05:10.040Z,6.89
2023-03-06T09:07:40.232Z,6.79
2023-03-06T09:10:14.495Z,7.54
2023-03-06T09:12:50.753Z,7.02
2023-03-06T09:15:23.867Z,7.28
2023-03-06T09:17:54.507Z,6.83
2023-03-06T09:20:24.531Z,5.95
2023-03-06T09:22:54.262Z,5.10
2023-03-06T09:25:25.091Z,4.74
2023-03-06T09:28:10.207Z,4.43
2023-03-06T09:30:43.189Z,3.56
2023-03-06T09:33:12.954Z,4.10
2023-03-06T09:35:44.860Z,3.24
2023-03-06T09:38:14.616Z,2.67
2023-03-06T09:40:53.925Z,3.10
2023-03-06T09:43:27.711Z,2.92
2023-03-06T09:45:59.699Z,2.44
2023-03-06T09:48:35.051Z,2.50
2023-03-06T09:51:08.551Z,2.98
2023-03-06T09:53:43.044Z,2.81
2023-03-06T09:56:17.429Z,3.18
2023-03-06T09:58:49.382Z,3.21
2023-03-06T10:01:22.550Z,3.43
2023-03-06T10:03:55.887Z,3.40
2023-03-06T10:06:30.158Z,2.43
2023-03-06T10:09:03.018Z,2.16
2023-03-06T10:11:37.178Z,2.13
2023-03-06T10:14:15.861Z,2.15
2023-03-06T10:16:47.608Z,1.95
2023-03-06T10:19:18.111Z,2.03
2023-03-06T10:21:52.901Z,2.24
2023-03-06T10:24:31.946Z,2.86
2023-03-06T10:27:06.397Z,3.23
2023-03-06T10:29:43.621Z,3.39
2023-03-06T10:32:22.496Z,3.58
2023-03-06T10:34:53.556Z,3.59
2023-03-06T10:37:24.178Z,3.53
2023-03-06T10:39:56.575Z,3.26
2023-03-06T10:42:28.659Z,2.60
2023-03-06T10:45:10.033Z,2.48
2023-03-06T10:47:42.301Z,2.38
2023-03-06T10:50:22.289Z,2.26
2023-03-06T10:53:00.855Z,1.99
2023-03-06T10:55:31.721Z,1.97
2023-03-06T10:58:18.176Z,1.86
2023-03-06T11:00:48.317Z,1.90
2023-03-06T11:03:22.015Z,2.03
2023-03-06T11:05:55.901Z,2.52
2023-03-06T11:08:27.243Z,2.78
2023-03-06T11:10:58.786Z,2.86
2023-03-06T11:13:30.614Z,2.97
2023-03-06T11:16:02.627Z,2.81
2023-03-06T11:18:36.869Z,2.66
2023-03-06T11:21:09.451Z,2.41
2023-03-06T11:23:41.333Z,2.38
2023-03-06T11:26:38.580Z,2.42
2023-03-06T11:29:23.588Z,2.55
2023-03-06T11:31:54.446Z,2.83
2023-03-06T11:34:32.338Z,3.09
2023-03-06T11:37:04.898Z,3.28
2023-03-06T11:39:38.047Z,3.62
2023-03-06T11:42:14.657Z,3.77
2023-03-06T11:44:50.911Z,3.69
2023-03-06T11:47:24.238Z,3.13
2023-03-06T11:50:05.797Z,2.81
2023-03-06T11:52:39.637Z,2.62
2023-03-06T11:55:14.618Z,2.29
2023-03-06T11:57:49.356Z,2.36
2023-03-06T12:00:24.561Z,2.26
2023-03-06T12:03:12.449Z,2.26
2023-03-06T12:05:48.211Z,2.26
2023-03-06T12:08:36.736Z,2.09
2023-03-06T12:11:13.156Z,2.05
2023-03-06T12:14:04.594Z,2.05
2023-03-06T12:17:01.203Z,2.06
2023-03-06T12:19:34.711Z,2.12
2023-03-06T12:22:14.861Z,2.14
2023-03-06T12:24:57.515Z,2.04
2023-03-06T12:27:33.203Z,2.19
2023-03-06T12:30:15.171Z,2.12
2023-03-06T12:32:51.458Z,2.27
2023-03-06T12:35:39.317Z,2.31
2023-03-06T12:38:22.731Z,2.32
2023-03-06T12:40:59.960Z,2.27
2023-03-06T12:43:44.851Z,2.33
2023-03-06T12:46:15.632Z,2.42
2023-03-06T12:48:48.698Z,2.42
2023-03-06T12:51:19.595Z,2.37
2023-03-06T12:53:51.915Z,2.49
2023-03-06T12:56:22.485Z,2.48
2023-03-06T12:58:53.726Z,2.52
2023-03-06T13:01:42.507Z,2.38
2023-03-06T13:04:27.213Z,2.33
2023-03-06T13:07:03.287Z,2.56
2023-03-06T13:09:39.435Z,2.62
2023-03-06T13:12:27.028Z,2.65
2023-03-06T13:15:01.219Z,2.65
2023-03-06T13:17:35.905Z,2.73
2023-03-06T13:20:28.521Z,2.76
2023-03-06T13:22:58.755Z,2.82
2023-03-06T13:25:39.704Z,2.94
2023-03-06T13:28:23.796Z,2.94
2023-03-06T13:30:54.109Z,2.96
2023-03-06T13:33:42.193Z,2.94
2023-03-06T13:36:22.520Z,2.85
2023-03-06T13:39:02.207Z,2.93
2023-03-06T13:41:50.305Z,2.78
2023-03-06T13:44:51.286Z,2.75
2023-03-06T13:50:37.880Z,2.64
2023-03-06T13:53:27.791Z,2.68
2023-03-06T13:56:04.048Z,2.64
2023-03-06T13:58:41.580Z,2.57
2023-03-06T14:01:22.185Z,2.53
2023-03-06T14:04:19.069Z,2.36
2023-03-06T14:06:54.900Z,2.33
2023-03-06T14:09:26.899Z,2.18
2023-03-06T14:11:59.267Z,2.23
2023-03-06T14:14:37.428Z,2.28
2023-03-06T14:17:07.167Z,2.30
2023-03-06T14:19:40.276Z,2.20
2023-03-06T14:22:18.446Z,2.12
2023-03-06T14:24:54.868Z,2.20
2023-03-06T14:27:39.343Z,2.14
2023-03-06T14:30:10.202Z,2.22
2023-03-06T14:32:41.816Z,2.16
2023-03-06T14:35:23.412Z,2.12
2023-03-06T14:37:57.012Z,2.06
2023-03-06T14:40:30.336Z,2.11
2023-03-06T14:43:13.295Z,2.10
2023-03-06T14:45:51.270Z,2.12
2023-03-06T14:48:21.062Z,2.12
2023-03-06T14:50:52.894Z,2.04
2023-03-06T14:53:26.660Z,2.00
2023-03-06T14:55:58.377Z,1.90
2023-03-06T14:58:30.571Z,1.75
2023-03-06T15:01:05.768Z,1.63
2023-03-06T15:03:43.904Z,1.42
2023-03-06T15:06:17.629Z,1.34
2023-03-06T15:08:50.512Z,1.15
2023-03-06T15:11:20.749Z,1.06
2023-03-06T15:14:01.530Z,0.88
2023-03-06T15:16:33.853Z,0.93
2023-03-06T15:19:04.624Z,0.94
2023-03-06T15:21:37.107Z,0.77
2023-03-06T15:24:21.617Z,0.70
2023-03-06T15:26:56.300Z,0.78
2023-03-06T15:29:26.238Z,0.75
2023-03-06T15:32:15.414Z,0.70
2023-03-06T15:34:47.685Z,0.69
2023-03-06T15:37:21.555Z,0.62
2023-03-06T15:40:04.570Z,0.56
2023-03-06T15:42:37.929Z,0.47
2023-03-06T15:45:16.937Z,0.31
2023-03-06T15:47:48.306Z,0.28
2023-03-06T15:50:19.328Z,0.17
2023-03-06T15:52:50.015Z,-0.02
2023-03-06T15:55:21.276Z,-0.02
2023-03-06T15:57:54.543Z,-0.12
2023-03-06T16:00:28.368Z,-0.18
2023-03-06T16:02:59.871Z,-0.28
2023-03-06T16:05:30.399Z,-0.32
2023-03-06T16:08:00.662Z,-0.41
2023-03-06T16:10:32.193Z,-0.47
2023-03-06T16:13:06.472Z,-0.62
2023-03-06T16:15:41.824Z,-0.62
2023-03-06T16:18:12.251Z,-0.95
2023-03-06T16:20:42.439Z,-0.60
2023-03-06T16:23:12.582Z,-0.61
2023-03-06T16:25:42.909Z,-0.63
2023-03-06T16:28:15.777Z,-0.64
2023-03-06T16:30:46.225Z,-0.67
2023-03-06T16:33:17.297Z,-0.78
2023-03-06T16:35:47.669Z,-0.76
2023-03-06T16:38:18.637Z,-0.83
2023-03-06T16:40:48.447Z,-0.86
2023-03-06T16:43:19.741Z,-0.90
2023-03-06T16:45:49.466Z,-0.92
2023-03-06T16:48:19.587Z,-0.92
2023-03-06T16:50:49.301Z,-1.01
2023-03-06T16:53:19.500Z,-1.01
2023-03-06T16:55:49.688Z,-0.98
2023-03-06T16:58:21.678Z,-0.97
2023-03-06T17:00:51.545Z,-0.97
2023-03-06T17:03:21.877Z,-1.09
2023-03-06T17:05:53.286Z,-1.12
2023-03-06T17:08:23.898Z,-1.17
2023-03-06T17:10:54.094Z,-1.11
2023-03-06T17:13:25.960Z,-1.05
2023-03-06T17:15:59.876Z,-1.03
2023-03-06T17:18:30.979Z,-0.98
2023-03-06T17:21:00.942Z,-0.95
2023-03-06T17:23:31.220Z,-1.00
2023-03-06T17:26:05.327Z,-0.99
2023-03-06T17:28:37.418Z,-1.00
2023-03-06T17:31:13.044Z,-0.97
2023-03-06T17:33:43.160Z,-0.98
2023-03-06T17:36:14.725Z,-0.95
2023-03-06T17:38:45.030Z,-0.95
2023-03-06T17:41:14.758Z,-0.93
2023-03-06T17:43:46.276Z,-0.93
2023-03-06T17:46:15.983Z,-1.01
2023-03-06T17:48:46.670Z,-1.03
2023-03-06T17:51:16.457Z,-1.04
2023-03-06T17:53:46.492Z,-1.10
2023-03-06T17:56:16.996Z,-1.16
2023-03-06T17:58:48.454Z,-1.18
2023-03-06T18:01:19.458Z,-1.27
2023-03-06T18:03:50.484Z,-1.33
2023-03-06T18:06:22.646Z,-1.42
2023-03-06T18:08:53.114Z,-1.47
2023-03-06T18:11:23.600Z,-1.53
2023-03-06T18:13:55.432Z,-1.58
2023-03-06T18:16:26.672Z,-1.64
2023-03-06T18:18:57.768Z,-1.76
2023-03-06T18:21:27.725Z,-1.96
2023-03-06T18:24:00.148Z,-2.09
2023-03-06T18:26:30.804Z,-2.13
2023-03-06T18:29:04.701Z,-2.07
2023-03-06T18:31:35.646Z,-2.12
2023-03-06T18:34:06.815Z,-2.25
2023-03-06T18:36:37.378Z,-2.34
2023-03-06T18:39:09.022Z,-2.47
2023-03-06T18:41:38.974Z,-2.51
2023-03-06T18:44:10.556Z,-2.53
2023-03-06T18:46:40.339Z,-2.50
2023-03-06T18:49:10.818Z,-2.56
2023-03-06T18:51:41.226Z,-2.57
2023-03-06T18:54:12.057Z,-2.58
2023-03-06T18:56:44.421Z,-2.60
2023-03-06T18:59:18.873Z,-2.65
2023-03-06T19:01:49.301Z,-2.69
2023-03-06T19:04:20.267Z,-2.70
2023-03-06T19:06:50.172Z,-2.74
2023-03-06T19:09:20.262Z,-2.83
2023-03-06T19:11:49.872Z,-2.87
2023-03-06T19:14:21.834Z,-2.93
2023-03-06T19:16:51.983Z,-2.91
2023-03-06T19:19:26.473Z,-2.90
2023-03-06T19:21:58.571Z,-3.01
2023-03-06T19:24:28.817Z,-3.04
2023-03-06T19:26:58.588Z,-3.10
2023-03-06T19:29:30.224Z,-3.18
2023-03-06T19:32:00.038Z,-3.15
2023-03-06T19:34:30.555Z,-3.13
2023-03-06T19:37:00.287Z,-3.16
2023-03-06T19:39:30.354Z,-3.17
2023-03-06T19:42:00.097Z,-3.15
2023-03-06T19:44:31.725Z,-3.32
2023-03-06T19:47:01.405Z,-3.41
2023-03-06T19:49:31.502Z,-3.40
2023-03-06T19:52:01.275Z,-3.41
2023-03-06T19:54:32.533Z,-3.48
2023-03-06T19:57:02.900Z,-3.49
2023-03-06T19:59:34.569Z,-3.49
2023-03-06T20:02:04.450Z,-3.47
2023-03-06T20:04:34.806Z,-3.59
2023-03-06T20:07:05.473Z,-3.64
2023-03-06T20:09:35.871Z,-3.69
2023-03-06T20:12:08.159Z,-3.78
2023-03-06T20:14:39.901Z,-3.79
2023-03-06T20:17:10.122Z,-3.85
2023-03-06T20:19:40.488Z,-3.91
2023-03-06T20:22:10.230Z,-3.91
2023-03-06T20:24:40.300Z,-4.04
2023-03-06T20:27:10.498Z,-3.99
2023-03-06T20:29:45.051Z,-4.05
2023-03-06T20:32:15.034Z,-4.07
2023-03-06T20:34:45.586Z,-4.09
2023-03-06T20:37:15.636Z,-4.14
2023-03-06T20:39:45.852Z,-4.20
2023-03-06T20:42:15.776Z,-4.31
2023-03-06T20:44:47.226Z,-4.30
2023-03-06T20:47:16.951Z,-4.41
2023-03-06T20:49:47.002Z,-4.44
2023-03-06T20:52:16.696Z,-4.52
2023-03-06T20:54:46.853Z,-4.50
2023-03-06T20:57:16.512Z,-4.67
2023-03-06T20:59:48.180Z,-4.56
2023-03-06T21:02:18.232Z,-4.69
2023-03-06T21:04:48.692Z,-4.72
2023-03-06T21:07:20.534Z,-4.71
2023-03-06T21:09:52.582Z,-4.76
2023-03-06T21:12:22.416Z,-4.72
2023-03-06T21:14:54.242Z,-4.81
2023-03-06T21:17:24.702Z,-4.93
2023-03-06T21:19:54.844Z,-5.04
2023-03-06T21:22:24.625Z,-5.02
2023-03-06T21:24:54.985Z,-5.06
2023-03-06T21:27:24.885Z,-5.01
2023-03-06T21:29:56.567Z,-4.97
2023-03-06T21:32:26.568Z,-4.99
2023-03-06T21:34:57.046Z,-5.03
2023-03-06T21:37:26.908Z,-5.11
2023-03-06T21:40:00.058Z,-5.14
2023-03-06T21:42:29.720Z,-5.17
2023-03-06T21:45:01.370Z,-5.26
2023-03-06T21:47:37.979Z,-5.38
2023-03-06T21:50:08.845Z,-5.36
2023-03-06T21:52:39.607Z,-5.30
2023-03-06T21:55:10.726Z,-5.29
2023-03-06T21:57:40.547Z,-5.42
2023-03-06T22:00:13.605Z,-5.56
2023-03-06T22:02:44.513Z,-5.56
2023-03-06T22:05:15.348Z,-5.59
2023-03-06T22:07:45.389Z,-5.60
2023-03-06T22:10:16.227Z,-5.64
2023-03-06T22:12:47.240Z,-5.72
2023-03-06T22:15:20.796Z,-5.72
2023-03-06T22:17:50.666Z,-5.71
2023-03-06T22:20:20.938Z,-5.74
2023-03-06T22:22:50.753Z,-5.79
2023-03-06T22:25:21.126Z,-5.82
2023-03-06T22:27:50.921Z,-5.87
2023-03-06T22:30:22.574Z,-5.95
2023-03-06T22:32:53.814Z,-6.00
2023-03-06T22:35:24.027Z,-6.03
2023-03-06T22:37:53.712Z,-6.04
2023-03-06T22:40:23.812Z,-6.07
2023-03-06T22:42:53.374Z,-6.10
2023-03-06T22:45:24.830Z,-6.08
2023-03-06T22:48:02.319Z,-6.12
2023-03-06T22:50:39.424Z,-6.18
2023-03-06T22:53:09.222Z,-6.21
2023-03-06T22:55:39.642Z,-6.32
2023-03-06T22:58:09.568Z,-6.36
2023-03-06T23:00:41.170Z,-6.29
2023-03-06T23:03:10.752Z,-6.27
2023-03-06T23:05:42.087Z,-6.27
2023-03-06T23:08:11.875Z,-6.31
2023-03-06T23:10:42.241Z,-6.40
2023-03-06T23:13:30.713Z,-6.38
2023-03-06T23:16:20.509Z,-6.36
2023-03-06T23:19:08.976Z,-6.32
2023-03-06T23:21:57.501Z,-6.38
2023-03-06T23:24:45.933Z,-6.38
2023-03-06T23:27:17.285Z,-6.27
2023-03-06T23:29:46.941Z,-6.19
2023-03-06T23:32:18.689Z,-6.17
2023-03-06T23:34:49.619Z,-6.08
2023-03-06T23:37:19.618Z,-6.02
2023-03-06T23:39:49.707Z,-6.03
2023-03-06T23:42:20.308Z,-5.85
2023-03-06T23:44:50.052Z,-5.88
2023-03-06T23:47:21.632Z,-5.89
2023-03-06T23:49:51.459Z,-5.99
2023-03-06T23:52:21.587Z,-6.00
2023-03-06T23:54:51.482Z,-6.06
2023-03-06T23:57:21.535Z,-6.08
2023-03-06T23:59:51.208Z,-6.16
